• Join FlightAware (Why Join?)
  • Login
  • US Flag 
08:50PM EDT


 

Airport Tracker/Info


-or-


 

Live Flight TrackerFlight Track Log ✈ UCA4844 ✈ 17-Mar-2014 ✈ KEWR - KORF

Flight Track Log - Related Links

Times and Time Zones

All times are in EDT time to prevent confusion due to time zone crossing. See the UCA4844 flight status page for this flight to view local times or setup timezone preferences in your user account.

Time Position Orientation Groundspeed Altitude Reporting Facility
EDT Latitude Longitude Course Direction KTS MPH feet Rate Location/Type
08:41AM 40.3896 -74.3398 203° Southwest  Level Estimated
08:42AM 40.3391 -74.3681 203° Southwest  Level Estimated
08:43AM 40.2885 -74.3965 203° Southwest  Level Estimated
08:44AM 40.2380 -74.4247 203° Southwest  Level Estimated
08:45AM 40.1875 -74.4530 203° Southwest  Level Estimated
08:46AM 40.1370 -74.4812 203° Southwest  Level Estimated
08:47AM 40.0864 -74.5093 203° Southwest  Level Estimated
08:48AM 40.0359 -74.5374 203° Southwest  Level Estimated
08:49AM 39.9853 -74.5655 203° Southwest  Level Estimated
08:50AM 39.9347 -74.5935 203° Southwest  Level Estimated
08:51AM 39.8842 -74.6215 203° Southwest  Level Estimated
08:52AM 39.8336 -74.6495 203° Southwest  Level Estimated
08:53AM 39.7830 -74.6774 203° Southwest  Level Estimated
08:54AM 39.7324 -74.7052 203° Southwest  Level Estimated
08:55AM 39.6818 -74.7330 203° Southwest  Level Estimated
08:56AM 39.6312 -74.7608 203° Southwest  Level Estimated
08:57AM 39.5806 -74.7886 203° Southwest  Level Estimated
08:58AM 39.5300 -74.8163 203° Southwest  Level Estimated
08:59AM 39.4794 -74.8439 203° Southwest  Level Estimated
09:00AM 39.4287 -74.8716 203° Southwest  Level Estimated
09:01AM 39.3781 -74.8991 203° Southwest  Level Estimated
09:02AM 39.3274 -74.9267 203° Southwest  Level Estimated
09:03AM 39.2768 -74.9542 203° Southwest  Level Estimated
09:04AM 39.2261 -74.9816 203° Southwest  Level Estimated
09:05AM 39.1755 -75.0091 203° Southwest  Level Estimated
09:06AM 39.1248 -75.0364 203° Southwest  Level Estimated
09:07AM 39.0741 -75.0638 203° Southwest  Level Estimated
09:08AM 39.0234 -75.0911 203° Southwest  Level Estimated
09:09AM 38.9728 -75.1183 203° Southwest  Level Estimated
09:10AM 38.9221 -75.1456 203° Southwest  Level Estimated
09:11AM 38.8713 -75.1728 203° Southwest  Level Estimated
09:12AM 38.8206 -75.1999 203° Southwest  Level Estimated
09:13AM 38.7699 -75.2270 203° Southwest  Level Estimated
09:14AM 38.7192 -75.2541 203° Southwest  Level Estimated
09:15AM 38.6685 -75.2811 203° Southwest  Level Estimated
09:16AM 38.6177 -75.3081 203° Southwest  Level Estimated
09:17AM 38.5670 -75.3351 203° Southwest  Level Estimated
09:18AM 38.5163 -75.3620 203° Southwest  Level Estimated
09:19AM 38.4655 -75.3889 203° Southwest  Level Estimated
09:20AM 38.4148 -75.4157 203° Southwest  Level Estimated
09:21AM 38.3640 -75.4425 202° Southwest  Level Estimated
09:22AM 38.3132 -75.4693 202° Southwest  Level Estimated
09:23AM 38.2625 -75.4960 202° Southwest  Level Estimated
09:24AM 38.2117 -75.5227 202° Southwest  Level Estimated
09:25AM 38.1609 -75.5493 202° Southwest  Level Estimated
09:26AM 38.1101 -75.5760 202° Southwest  Level Estimated
09:27AM 38.0593 -75.6025 202° Southwest  Level Estimated
09:28AM 38.0085 -75.6291 202° Southwest  Level Estimated
09:29AM 37.9577 -75.6556 202° Southwest  Level Estimated
09:30AM 37.9068 -75.6821 202° Southwest  Level Estimated
09:31AM 37.8560 -75.7085 202° Southwest  Level Estimated
09:32AM 37.8052 -75.7349 202° Southwest  Level Estimated
09:33AM 37.7544 -75.7612 202° Southwest  Level Estimated
09:34AM 37.7035 -75.7876 202° Southwest  Level Estimated
09:35AM 37.6527 -75.8139 202° Southwest  Level Estimated
09:36AM 37.6018 -75.8401 202° Southwest  Level Estimated
09:37AM 37.5510 -75.8663 202° Southwest  Level Estimated
09:38AM 37.5001 -75.8925 202° Southwest  Level Estimated
09:39AM 37.4492 -75.9186 202° Southwest  Level Estimated
09:40AM 37.3983 -75.9448 202° Southwest  Level Estimated
09:41AM 37.3475 -75.9708 202° Southwest  Level Estimated
09:42AM 37.2966 -75.9969 202° Southwest  Level Estimated
09:43AM 37.2457 -76.0229 202° Southwest  Level Estimated
09:44AM 37.1948 -76.0488 202° Southwest  Level Estimated
09:45AM 37.1439 -76.0748 202° Southwest  Level Estimated
09:46AM 37.0930 -76.1007 202° Southwest  Level Estimated
09:47AM 37.0421 -76.1265 202° Southwest  Level Estimated
09:48AM 36.9911 -76.1524 202° Southwest  Level Estimated
09:49AM 36.9402 -76.1782 202° Southwest  Level Estimated
09:50AM 36.8946 -76.2012 202° Southwest  Level Estimated
09:51AM 36.8946 -76.2012 North  Level Estimated
09:52AM 36.8946 -76.2012 North  Level Estimated
09:53AM 36.8946 -76.2012 North  Level Estimated
09:54AM 36.8946 -76.2012 North  Level Estimated
09:55AM 36.8946 -76.2012 North  Level Estimated
09:56AM 36.8946 -76.2012 North  Level Estimated
09:57AM 36.8946 -76.2012 North  Level Estimated
09:58AM 36.8946 -76.2012 North  Level Estimated
09:59AM 36.8946 -76.2012 North  Level Estimated
10:00AM 36.8946 -76.2012 North  Level Estimated
10:01AM 36.8946 -76.2012 North  Level Estimated
10:02AM 36.8946 -76.2012 North  Level Estimated
10:03AM 36.8946 -76.2012 North  Level Estimated
10:04AM 36.8946 -76.2012 North  Level Estimated
10:05AM 36.8946 -76.2012 North  Level Estimated